Time;durP1;ratioP1;P1;durP2;ratioP2;P2;SDS_P1;SDS_P2;PMS_P1;PMS_P2;Temp;Humidity;BMP_temperature;BMP_pressure;BME280_temperature;BME280_humidity;BME280_pressure;Samples;Min_cycle;Max_cycle;Signal;HPM_P1;HPM_P2
2020/12/30 00:01:56;;;;;;;20.20;10.63;;;;;;;1.21;90.43;98948.16;5052383;28;20041;-72
2020/12/30 00:04:21;;;;;;;21.70;11.17;;;;;;;1.18;90.53;98953.72;5051301;28;20037;-71
2020/12/30 00:06:46;;;;;;;20.53;12.23;;;;;;;1.16;90.47;98950.38;5051997;28;20051;-71
2020/12/30 00:09:12;;;;;;;23.27;11.53;;;;;;;1.18;90.86;98945.81;5051379;28;20044;-71
2020/12/30 00:11:37;;;;;;;24.63;14.17;;;;;;;1.19;90.77;98945.66;5052069;28;20463;-71
2020/12/30 00:14:03;;;;;;;21.27;12.70;;;;;;;1.15;90.74;98949.56;5052268;28;20106;-71
2020/12/30 00:16:28;;;;;;;23.25;13.88;;;;;;;1.14;90.67;98947.91;5051752;28;20044;-71
2020/12/30 00:18:53;;;;;;;24.87;14.00;;;;;;;1.12;90.86;98949.03;5052063;28;20076;-70
2020/12/30 00:21:19;;;;;;;23.93;12.80;;;;;;;1.09;90.90;98955.41;5051993;28;20083;-71
2020/12/30 00:23:44;;;;;;;24.77;13.13;;;;;;;1.10;91.02;98954.44;5051015;28;20068;-71
2020/12/30 00:26:09;;;;;;;26.00;12.90;;;;;;;1.10;91.05;98959.69;5051413;28;20037;-71
2020/12/30 00:28:35;;;;;;;27.73;13.73;;;;;;;1.11;91.15;98963.97;5050908;28;20033;-71
2020/12/30 00:31:00;;;;;;;28.40;14.60;;;;;;;1.13;91.21;98967.28;5034249;28;20036;-71
2020/12/30 00:33:25;;;;;;;26.10;14.27;;;;;;;1.14;91.22;98968.09;5050964;28;20052;-71
2020/12/30 00:35:50;;;;;;;25.13;13.87;;;;;;;1.14;91.28;98974.19;5051535;28;20040;-71
2020/12/30 00:38:16;;;;;;;29.10;15.10;;;;;;;1.13;91.50;98972.53;5051614;28;20048;-71
2020/12/30 00:40:41;;;;;;;24.60;15.07;;;;;;;1.16;91.33;98966.97;5050724;28;20067;-71
2020/12/30 00:43:06;;;;;;;29.30;14.37;;;;;;;1.15;91.42;98973.22;5050740;28;20040;-71
2020/12/30 00:45:32;;;;;;;27.33;14.63;;;;;;;1.18;91.45;98969.47;5051502;28;20039;-71
2020/12/30 00:47:57;;;;;;;29.53;15.93;;;;;;;1.19;91.58;98977.19;5051455;28;20033;-71
2020/12/30 00:50:22;;;;;;;28.53;16.80;;;;;;;1.25;91.24;98987.13;5050459;28;20051;-71
2020/12/30 00:52:48;;;;;;;29.93;14.87;;;;;;;1.29;91.46;98986.84;5050512;28;20879;-71
2020/12/30 00:55:14;;;;;;;30.05;15.40;;;;;;;1.26;91.61;98999.34;5033762;28;20040;-71
2020/12/30 00:57:48;;;;;;;28.52;15.85;;;;;;;1.30;91.69;98993.78;5049513;28;20099;-71
2020/12/30 01:00:16;;;;;;;30.40;14.80;;;;;;;1.31;91.51;98996.28;5051325;28;20347;-71
2020/12/30 01:03:00;;;;;;;31.98;15.75;;;;;;;1.33;91.62;98998.72;5051184;28;20071;-71
2020/12/30 01:05:26;;;;;;;31.60;17.17;;;;;;;1.37;91.26;98998.28;5050362;28;20049;-71
2020/12/30 01:07:51;;;;;;;34.33;16.50;;;;;;;1.40;91.41;99010.31;5049968;28;20029;-71
2020/12/30 01:10:16;;;;;;;30.20;16.67;;;;;;;1.41;91.47;99002.28;5050355;28;20040;-71
2020/12/30 01:12:42;;;;;;;32.27;16.63;;;;;;;1.46;91.55;99004.47;5050349;28;20082;-71
2020/12/30 01:15:07;;;;;;;36.53;17.90;;;;;;;1.42;91.79;99013.63;5051334;28;20036;-71
2020/12/30 01:17:32;;;;;;;33.93;16.93;;;;;;;1.47;91.64;98998.22;5049990;28;20064;-71
2020/12/30 01:19:57;;;;;;;40.27;20.27;;;;;;;1.46;92.04;99000.03;5051216;28;20275;-72
2020/12/30 01:22:23;;;;;;;44.63;20.10;;;;;;;1.49;92.22;98998.91;5051083;28;20461;-71
2020/12/30 01:24:48;;;;;;;43.53;20.60;;;;;;;1.49;92.14;99004.19;5050257;28;20585;-72
2020/12/30 01:27:13;;;;;;;43.67;20.17;;;;;;;1.56;92.16;98999.16;5033227;28;20047;-72
2020/12/30 01:29:39;;;;;;;45.87;19.67;;;;;;;1.58;92.13;99005.09;5051096;28;20067;-72
2020/12/30 01:32:04;;;;;;;43.43;19.87;;;;;;;1.61;92.15;99018.78;5051093;28;20051;-73
2020/12/30 01:34:30;;;;;;;42.30;19.97;;;;;;;1.60;92.28;99006.63;5051009;28;20369;-73
2020/12/30 01:36:55;;;;;;;46.80;21.53;;;;;;;1.64;92.23;99015.06;5049715;28;20044;-73
2020/12/30 01:39:21;;;;;;;48.60;21.33;;;;;;;1.66;92.38;99019.19;5050102;28;20366;-73
2020/12/30 01:41:47;;;;;;;46.92;20.65;;;;;;;1.69;92.20;99020.69;5033438;28;20108;-73
2020/12/30 01:44:13;;;;;;;52.45;21.95;;;;;;;1.78;92.34;99018.94;5050061;28;20047;-73
2020/12/30 01:46:39;;;;;;;55.90;23.05;;;;;;;1.76;92.35;99020.94;5050686;28;20735;-73
2020/12/30 01:49:07;;;;;;;55.38;24.88;;;;;;;1.77;92.30;99019.94;5050887;28;20457;-73
2020/12/30 01:51:34;;;;;;;61.42;23.80;;;;;;;1.79;92.39;99016.19;5050752;28;20079;-73
2020/12/30 01:54:01;;;;;;;62.17;26.27;;;;;;;1.81;92.46;99013.41;5049848;28;20135;-73
2020/12/30 01:56:30;;;;;;;59.90;24.73;;;;;;;1.89;92.47;99021.38;5049488;28;20371;-73
2020/12/30 01:58:56;;;;;;;63.30;25.10;;;;;;;1.88;92.60;99022.38;5050776;28;20041;-72
2020/12/30 02:01:25;;;;;;;57.27;26.47;;;;;;;1.95;92.29;99017.34;5050099;28;20095;-73
2020/12/30 02:03:56;;;;;;;63.20;27.17;;;;;;;1.97;92.43;99020.66;5050454;28;20069;-73
2020/12/30 02:06:21;;;;;;;57.22;26.50;;;;;;;1.97;92.27;99024.09;5050393;28;20033;-72
2020/12/30 02:08:47;;;;;;;68.77;27.07;;;;;;;1.98;92.56;99020.47;5051569;28;20420;-73
2020/12/30 02:11:13;;;;;;;69.15;29.80;;;;;;;1.98;92.58;99028.38;5054429;28;20040;-72
2020/12/30 02:13:38;;;;;;;54.67;25.40;;;;;;;2.02;92.73;99026.28;5053524;28;20045;-73
2020/12/30 02:16:03;;;;;;;68.60;28.37;;;;;;;2.04;92.46;99025.16;5053197;28;20357;-73
2020/12/30 02:18:29;;;;;;;65.83;27.03;;;;;;;2.07;92.46;99032.75;5054147;28;20477;-72
2020/12/30 02:20:54;;;;;;;68.50;27.90;;;;;;;2.07;92.33;99027.50;5054351;28;20075;-73
2020/12/30 02:23:20;;;;;;;68.93;28.90;;;;;;;2.08;92.48;99025.69;5053393;28;20044;-73
2020/12/30 02:25:45;;;;;;;73.53;28.88;;;;;;;2.10;92.58;99032.44;5053072;28;20033;-73
2020/12/30 02:28:13;;;;;;;61.77;27.63;;;;;;;2.14;92.06;99024.25;5053273;28;20036;-72
2020/12/30 02:30:39;;;;;;;68.28;29.80;;;;;;;2.14;92.40;99029.53;5054134;28;20049;-72
2020/12/30 02:33:08;;;;;;;67.87;28.73;;;;;;;2.14;92.23;99019.00;5053192;28;20036;-73
2020/12/30 02:35:34;;;;;;;102.85;32.42;;;;;;;2.15;92.24;99023.28;5053792;28;20438;-73
2020/12/30 02:37:59;;;;;;;67.43;29.43;;;;;;;2.14;92.28;99017.19;5053787;28;20047;-73
2020/12/30 02:40:24;;;;;;;64.77;27.17;;;;;;;2.22;92.18;99016.44;5054098;28;20044;-66
2020/12/30 02:42:51;;;;;;;59.00;27.13;;;;;;;2.22;91.95;99019.06;5053926;28;20029;-66
2020/12/30 02:45:16;;;;;;;61.25;28.77;;;;;;;2.23;91.95;99021.56;5053753;28;20090;-66
2020/12/30 02:47:42;;;;;;;65.77;28.87;;;;;;;2.23;91.85;99023.38;5052492;28;20122;-66
2020/12/30 02:50:07;;;;;;;57.23;25.60;;;;;;;2.23;91.47;99028.63;5052740;28;20048;-66
2020/12/30 02:52:32;;;;;;;55.73;25.80;;;;;;;2.23;91.65;99026.81;5053833;28;20044;-72
2020/12/30 02:54:58;;;;;;;65.47;27.67;;;;;;;2.24;91.48;99025.81;5053704;28;20025;-72
2020/12/30 02:57:23;;;;;;;63.03;28.60;;;;;;;2.25;91.70;99031.94;5053359;28;20576;-72
2020/12/30 02:59:55;;;;;;;63.30;27.10;;;;;;;2.24;91.50;99033.72;5052666;28;20478;-72
2020/12/30 03:02:21;;;;;;;52.40;23.75;;;;;;;2.28;91.68;99042.16;5052590;28;20443;-72
2020/12/30 03:04:46;;;;;;;54.92;24.23;;;;;;;2.28;91.48;99036.91;5053355;28;20052;-72
2020/12/30 03:07:12;;;;;;;54.20;26.30;;;;;;;2.29;91.31;99043.81;5035645;28;20040;-72
2020/12/30 03:09:37;;;;;;;59.70;28.13;;;;;;;2.25;91.25;99038.03;5036004;28;20041;-72
2020/12/30 03:12:02;;;;;;;60.30;26.93;;;;;;;2.26;91.22;99044.13;5053366;28;20056;-72
2020/12/30 03:14:27;;;;;;;64.40;28.53;;;;;;;2.24;91.56;99041.63;5052364;28;20029;-72
2020/12/30 03:16:53;;;;;;;63.23;30.17;;;;;;;2.24;91.63;99044.25;5051946;28;20140;-73
2020/12/30 03:19:18;;;;;;;71.10;29.33;;;;;;;2.27;91.38;99040.50;5053165;28;20136;-72
2020/12/30 03:21:43;;;;;;;63.40;27.90;;;;;;;2.28;91.53;99047.44;5051792;28;20562;-72
2020/12/30 03:24:09;;;;;;;70.00;29.67;;;;;;;2.29;91.51;99054.34;5053248;28;20037;-72
2020/12/30 03:26:35;;;;;;;65.77;29.40;;;;;;;2.29;91.62;99046.44;5051793;28;20073;-72
2020/12/30 03:29:01;;;;;;;68.45;31.73;;;;;;;2.31;91.54;99047.13;5052118;28;20098;-72
2020/12/30 03:31:30;;;;;;;69.68;32.28;;;;;;;2.30;91.45;99051.56;5052895;28;20048;-72
2020/12/30 03:33:57;;;;;;;78.22;31.35;;;;;;;2.31;91.42;99040.03;5052898;28;20032;-72
2020/12/30 03:36:22;;;;;;;;;;;;;;;2.35;91.18;99043.22;5052994;28;20029;-72
2020/12/30 03:38:48;;;;;;;76.80;33.63;;;;;;;2.29;91.39;99044.66;5051877;28;19922;-72
2020/12/30 03:41:13;;;;;;;78.47;33.80;;;;;;;2.33;91.15;99042.53;5051796;28;20194;-72
2020/12/30 03:43:38;;;;;;;76.87;34.10;;;;;;;2.32;91.45;99046.16;5051882;28;20059;-72
2020/12/30 03:46:04;;;;;;;75.17;34.00;;;;;;;2.34;91.48;99041.53;5052337;28;20044;-71
2020/12/30 03:48:29;;;;;;;78.57;33.50;;;;;;;2.34;91.43;99049.44;5052660;28;20108;-72
2020/12/30 03:50:54;;;;;;;78.17;34.13;;;;;;;2.35;91.24;99048.47;5051691;28;20439;-72
2020/12/30 03:53:19;;;;;;;87.60;34.37;;;;;;;2.32;91.34;99054.06;5052567;28;20150;-72
2020/12/30 03:55:45;;;;;;;80.00;36.90;;;;;;;2.34;91.47;99049.44;5052368;28;20086;-71
2020/12/30 03:58:10;;;;;;;84.17;33.50;;;;;;;2.31;91.37;99057.66;5052354;28;20059;-71
2020/12/30 04:00:35;;;;;;;78.37;33.70;;;;;;;2.35;91.28;99058.19;5052419;28;20347;-72
2020/12/30 04:03:01;;;;;;;83.33;39.10;;;;;;;2.32;91.12;99059.31;5051288;28;20721;-71
2020/12/30 04:05:26;;;;;;;72.70;32.20;;;;;;;2.34;91.04;99062.63;5051425;28;20041;-72
2020/12/30 04:07:53;;;;;;;74.90;33.97;;;;;;;2.32;90.72;99051.44;5052295;28;20025;-72
2020/12/30 04:10:18;;;;;;;73.32;33.10;;;;;;;2.32;90.92;99070.69;5051280;28;20083;-71
2020/12/30 04:12:43;;;;;;;80.43;32.87;;;;;;;2.33;90.92;99060.97;5051196;28;20064;-71
2020/12/30 04:15:09;;;;;;;70.57;32.60;;;;;;;2.34;90.91;99070.50;5052031;28;20450;-72
2020/12/30 04:17:34;;;;;;;63.23;27.63;;;;;;;2.34;90.50;99067.88;5051592;28;20044;-71
2020/12/30 04:19:59;;;;;;;65.23;30.53;;;;;;;2.33;90.60;99061.78;5052074;28;20051;-71
2020/12/30 04:22:25;;;;;;;65.60;31.50;;;;;;;2.35;90.38;99074.81;5050998;28;20036;-71
2020/12/30 04:24:50;;;;;;;63.80;29.37;;;;;;;2.36;90.10;99065.94;5051032;28;20067;-71
2020/12/30 04:27:15;;;;;;;63.63;29.13;;;;;;;2.36;89.81;99073.81;5050787;28;20076;-71
2020/12/30 04:29:40;;;;;;;66.17;29.60;;;;;;;2.34;90.21;99067.88;5051863;28;20037;-72
2020/12/30 04:32:06;;;;;;;64.20;28.77;;;;;;;2.35;90.30;99068.72;5033323;28;20075;-71
2020/12/30 04:34:31;;;;;;;62.67;28.77;;;;;;;2.34;90.44;99070.50;5050970;28;20037;-71
2020/12/30 04:36:57;;;;;;;67.87;29.73;;;;;;;2.33;90.40;99074.13;5051439;28;20380;-71
2020/12/30 04:39:22;;;;;;;59.65;27.92;;;;;;;2.37;89.87;99074.69;5051827;28;20029;-71
2020/12/30 04:41:48;;;;;;;64.17;31.30;;;;;;;2.39;90.21;99077.97;5051689;28;20583;-71
2020/12/30 04:44:16;;;;;;;62.90;29.10;;;;;;;2.37;89.95;99088.66;5050785;28;20032;-71
2020/12/30 04:46:42;;;;;;;69.72;34.13;;;;;;;2.39;89.86;99080.59;5050212;28;20029;-72
2020/12/30 04:49:08;;;;;;;;;;;;;;;2.39;89.66;99076.19;5051972;28;20124;-71
2020/12/30 04:51:35;;;;;;;63.05;28.17;;;;;;;2.38;89.98;99085.03;5050609;28;20015;-71
2020/12/30 04:54:03;;;;;;;69.35;31.38;;;;;;;2.37;89.88;99079.94;5050469;28;20484;-72
2020/12/30 04:56:51;;;;;;;63.83;29.40;;;;;;;2.38;89.99;99089.50;5051116;28;20029;-72
2020/12/30 04:59:21;;;;;;;64.63;27.20;;;;;;;2.37;90.22;99085.22;5051308;28;20060;-72
2020/12/30 05:01:52;;;;;;;62.78;29.27;;;;;;;2.39;90.04;99091.13;5050364;28;20454;-72
2020/12/30 05:04:19;;;;;;;60.90;28.27;;;;;;;2.38;90.05;99079.78;5050287;28;20040;-71
2020/12/30 05:06:49;;;;;;;56.72;28.10;;;;;;;2.37;90.16;99093.94;5051082;28;20090;-72
2020/12/30 05:09:22;;;;;;;61.40;27.73;;;;;;;2.39;90.31;99091.97;5050336;28;20438;-71
2020/12/30 05:11:47;;;;;;;60.17;28.25;;;;;;;2.36;90.02;99097.53;5050797;28;20091;-67
2020/12/30 05:14:13;;;;;;;54.63;26.27;;;;;;;2.42;89.59;99091.69;5033960;28;20835;-71
2020/12/30 05:16:38;;;;;;;58.53;28.10;;;;;;;2.40;89.69;99095.44;5050835;28;20044;-72
2020/12/30 05:19:04;;;;;;;61.13;29.60;;;;;;;2.39;89.46;99094.63;5033550;28;20131;-72
2020/12/30 05:21:29;;;;;;;55.53;28.27;;;;;;;2.41;89.33;99097.94;5050274;28;20036;-72
2020/12/30 05:23:56;;;;;;;57.47;28.97;;;;;;;2.41;89.15;99095.31;5051066;28;20127;-71
2020/12/30 05:26:22;;;;;;;56.13;28.05;;;;;;;2.41;89.28;99087.41;5050879;28;20538;-72
2020/12/30 05:28:47;;;;;;;58.53;26.25;;;;;;;2.42;89.21;99096.94;5051049;28;20112;-72
2020/12/30 05:31:13;;;;;;;52.35;25.95;;;;;;;2.42;89.03;99096.13;5051121;28;20719;-71
2020/12/30 05:33:38;;;;;;;51.10;24.90;;;;;;;2.41;89.27;99090.03;5051096;28;20359;-71
2020/12/30 05:36:06;;;;;;;57.53;27.10;;;;;;;2.40;88.91;99098.91;5033068;28;20295;-71
2020/12/30 05:38:31;;;;;;;56.45;24.08;;;;;;;2.38;89.07;99098.22;5049800;28;20040;-71
2020/12/30 05:40:56;;;;;;;48.67;23.43;;;;;;;2.40;89.05;99098.91;5050299;28;20056;-71
2020/12/30 05:43:22;;;;;;;42.87;21.47;;;;;;;2.44;88.63;99102.88;5051128;28;20072;-71
2020/12/30 05:45:52;;;;;;;47.97;23.57;;;;;;;2.44;88.34;99100.25;5054771;28;20119;-71
2020/12/30 05:48:18;;;;;;;49.47;24.30;;;;;;;2.45;88.38;99106.34;5054829;28;20078;-72
2020/12/30 05:50:53;;;;;;;47.17;24.05;;;;;;;2.44;88.21;99102.06;5054801;28;20045;-71
2020/12/30 05:53:19;;;;;;;55.17;23.13;;;;;;;2.45;88.45;99109.81;5054863;28;20040;-72
2020/12/30 05:55:48;;;;;;;;;;;;;;;2.44;88.36;99116.06;5054968;28;20359;-72
2020/12/30 05:58:15;;;;;;;47.90;26.13;;;;;;;2.41;88.21;99119.00;5053589;28;19929;-71
2020/12/30 06:00:41;;;;;;;46.50;22.27;;;;;;;2.42;88.43;99118.00;5054667;28;20056;-71
2020/12/30 06:03:07;;;;;;;54.17;24.17;;;;;;;2.40;88.47;99129.69;5054554;28;20029;-71
2020/12/30 06:05:33;;;;;;;46.17;24.40;;;;;;;2.42;88.69;99123.28;5053474;28;20094;-71
2020/12/30 06:07:58;;;;;;;51.17;25.13;;;;;;;2.42;88.40;99131.19;5054399;28;20033;-71
2020/12/30 06:10:26;;;;;;;54.33;25.40;;;;;;;2.38;88.71;99126.38;5053584;28;20099;-72
2020/12/30 06:13:02;;;;;;;55.00;26.73;;;;;;;2.37;88.77;99130.81;5036900;28;20465;-72
2020/12/30 06:15:28;;;;;;;52.45;25.05;;;;;;;2.43;88.40;99129.38;5054323;28;20033;-71
2020/12/30 06:17:56;;;;;;;62.15;25.70;;;;;;;2.40;88.63;99137.59;5054090;28;20041;-71
2020/12/30 06:20:31;;;;;;;59.97;29.60;;;;;;;2.39;88.80;99156.97;5054224;28;20036;-71
2020/12/30 06:22:57;;;;;;;54.33;26.43;;;;;;;2.39;88.40;99142.03;5054329;28;20051;-72
2020/12/30 06:25:25;;;;;;;61.00;27.58;;;;;;;2.45;88.68;99141.41;5036580;28;20456;-71
2020/12/30 06:27:51;;;;;;;54.67;26.60;;;;;;;2.43;88.61;99143.38;5052934;28;20071;-71
2020/12/30 06:30:17;;;;;;;55.65;27.60;;;;;;;2.39;88.80;99146.44;5054055;28;20033;-72
2020/12/30 06:32:42;;;;;;;57.65;26.95;;;;;;;2.42;88.67;99149.63;5053925;28;20063;-72
2020/12/30 06:35:08;;;;;;;48.93;27.30;;;;;;;2.40;88.84;99154.22;5053989;28;20151;-71
2020/12/30 06:37:35;;;;;;;58.20;28.57;;;;;;;2.36;89.17;99152.84;5051059;28;20063;-71
2020/12/30 06:40:18;;;;;;;58.97;27.60;;;;;;;2.36;89.21;99149.38;5034697;28;20382;-71
2020/12/30 06:42:45;;;;;;;58.50;26.25;;;;;;;2.35;89.34;99145.94;5052226;28;20044;-71
2020/12/30 06:45:36;;;;;;;;;;;;;;;2.33;89.29;99150.50;5052510;28;20638;-72
2020/12/30 06:48:02;;;;;;;60.65;30.10;;;;;;;2.30;89.32;99156.09;5050953;28;19913;-71
2020/12/30 06:50:28;;;;;;;67.45;30.42;;;;;;;2.32;89.40;99156.78;5051649;28;20124;-71
2020/12/30 06:52:54;;;;;;;63.15;30.35;;;;;;;2.34;89.10;99162.69;5052576;28;20132;-71
2020/12/30 06:55:45;;;;;;;64.07;30.27;;;;;;;2.36;89.28;99168.66;5051588;28;20435;-71
2020/12/30 06:58:46;;;;;;;62.95;30.02;;;;;;;2.36;88.98;99166.00;5046862;28;20458;-71
2020/12/30 07:01:18;;;;;;;56.70;31.48;;;;;;;2.41;88.66;99162.94;5052565;28;20044;-71
2020/12/30 07:03:45;;;;;;;59.05;28.80;;;;;;;2.42;88.51;99177.78;5052281;28;20041;-71
2020/12/30 07:06:39;;;;;;;67.68;31.88;;;;;;;2.40;88.63;99167.38;5053098;28;20045;-71
2020/12/30 07:09:06;;;;;;;62.27;27.10;;;;;;;2.40;88.91;99169.19;5031267;28;20076;-71
2020/12/30 07:11:50;;;;;;;70.47;28.77;;;;;;;2.43;88.71;99172.34;5053348;28;20036;-72
2020/12/30 07:14:19;;;;;;;57.78;32.20;;;;;;;2.43;88.15;99182.06;5053385;28;20469;-71
2020/12/30 07:16:47;;;;;;;56.92;25.90;;;;;;;2.43;88.17;99182.88;5052812;28;20178;-71
2020/12/30 07:19:19;;;;;;;55.38;26.10;;;;;;;2.44;88.36;99189.81;5053288;28;20115;-71
2020/12/30 07:21:53;;;;;;;55.60;26.58;;;;;;;2.43;88.29;99193.41;5053271;28;20112;-72
2020/12/30 07:24:21;;;;;;;54.60;26.42;;;;;;;2.43;88.39;99192.59;5052191;28;20051;-72
2020/12/30 07:26:47;;;;;;;52.42;27.35;;;;;;;2.43;88.29;99201.31;5051774;28;20069;-72
2020/12/30 07:29:16;;;;;;;54.28;25.48;;;;;;;2.46;88.12;99203.69;5051952;28;20037;-71
2020/12/30 07:31:41;;;;;;;55.90;25.92;;;;;;;2.43;87.83;99209.22;5051968;28;20040;-71
2020/12/30 07:34:34;;;;;;;53.40;27.23;;;;;;;2.49;87.61;99213.91;5051987;28;20175;-71
2020/12/30 07:36:59;;;;;;;49.90;25.08;;;;;;;2.47;87.96;99210.59;5050591;28;20049;-71
2020/12/30 07:39:33;;;;;;;49.10;24.40;;;;;;;2.48;87.39;99211.41;5051873;28;20033;-71
2020/12/30 07:41:58;;;;;;;47.70;23.30;;;;;;;2.48;87.43;99209.63;5035197;28;20032;-71
2020/12/30 07:44:26;;;;;;;49.22;24.25;;;;;;;2.53;87.16;99214.44;5051818;28;20344;-71
2020/12/30 07:46:51;;;;;;;51.03;24.97;;;;;;;2.50;87.38;99226.09;5051583;28;20099;-71
2020/12/30 07:49:22;;;;;;;46.33;24.07;;;;;;;2.50;87.28;99220.81;5052705;28;20087;-71
2020/12/30 07:51:50;;;;;;;47.05;22.75;;;;;;;2.46;87.41;99224.75;5051696;28;20048;-71
2020/12/30 07:54:17;;;;;;;48.15;23.73;;;;;;;2.49;87.35;99227.06;5052527;28;20037;-71
2020/12/30 07:56:43;;;;;;;52.60;25.77;;;;;;;2.49;87.31;99229.72;5052348;28;20032;-66
2020/12/30 07:59:08;;;;;;;46.67;23.60;;;;;;;2.49;87.44;99228.88;5051551;28;20419;-67
2020/12/30 08:01:34;;;;;;;45.15;21.17;;;;;;;2.54;86.63;99235.38;5034893;28;20045;-67
2020/12/30 08:04:09;;;;;;;50.15;24.48;;;;;;;2.52;86.90;99228.59;5051210;28;20059;-67
2020/12/30 08:06:45;;;;;;;49.20;22.40;;;;;;;2.49;87.25;99226.25;5050835;28;20040;-67
2020/12/30 08:09:12;;;;;;;45.78;23.10;;;;;;;2.50;86.91;99235.81;5052242;28;20128;-67
2020/12/30 08:11:46;;;;;;;46.92;24.30;;;;;;;2.49;86.97;99239.44;5051213;28;20048;-67
2020/12/30 08:14:11;;;;;;;46.47;22.83;;;;;;;2.49;87.16;99239.44;5052112;28;20047;-67
2020/12/30 08:16:37;;;;;;;44.17;22.87;;;;;;;2.46;87.09;99245.81;5050710;28;20127;-67
2020/12/30 08:19:02;;;;;;;45.40;22.33;;;;;;;2.49;87.11;99247.34;5051951;28;20072;-67
2020/12/30 08:21:27;;;;;;;43.23;23.07;;;;;;;2.50;86.83;99252.44;5052080;28;20029;-67
2020/12/30 08:24:09;;;;;;;43.63;21.80;;;;;;;2.45;86.86;99262.59;5052010;28;20075;-67
2020/12/30 08:26:35;;;;;;;48.05;22.55;;;;;;;2.45;86.96;99261.75;5050695;28;20178;-67
2020/12/30 08:29:01;;;;;;;45.08;23.58;;;;;;;2.47;86.93;99273.00;5033817;28;20094;-67
2020/12/30 08:31:40;;;;;;;44.70;23.37;;;;;;;2.46;86.84;99259.00;5048603;28;20029;-67
2020/12/30 08:34:07;;;;;;;40.22;20.02;;;;;;;2.46;86.94;99272.16;5049811;28;20072;-67
2020/12/30 08:36:39;;;;;;;48.42;25.02;;;;;;;2.44;87.29;99274.13;5049399;28;20508;-67
2020/12/30 08:39:07;;;;;;;47.15;23.20;;;;;;;2.45;87.48;99270.50;5032219;28;20033;-67
2020/12/30 08:41:46;;;;;;;45.60;23.33;;;;;;;2.45;87.03;99273.13;5032023;28;20051;-67
2020/12/30 08:44:19;;;;;;;45.50;21.45;;;;;;;2.46;87.08;99279.25;5048621;28;20036;-67
2020/12/30 08:46:48;;;;;;;51.47;24.45;;;;;;;2.46;86.92;99274.81;5033599;28;20481;-67
2020/12/30 08:49:15;;;;;;;51.53;25.38;;;;;;;2.46;87.41;99282.72;5050676;28;20044;-67
2020/12/30 08:51:41;;;;;;;44.38;23.13;;;;;;;2.39;87.54;99281.63;5051586;28;20033;-67
2020/12/30 08:54:14;;;;;;;;;;;;;;;2.41;87.35;99284.94;5050929;28;20044;-67
2020/12/30 08:56:43;;;;;;;47.85;25.30;;;;;;;2.38;87.48;99279.13;5049973;28;19912;-67
2020/12/30 08:59:09;;;;;;;45.05;22.92;;;;;;;2.36;87.70;99286.34;5033809;28;20037;-67
2020/12/30 09:01:34;;;;;;;48.10;24.30;;;;;;;2.40;87.80;99296.44;5051511;28;20070;-67
2020/12/30 09:04:12;;;;;;;50.47;23.63;;;;;;;2.43;87.36;99303.22;5050259;28;20036;-67
2020/12/30 09:06:39;;;;;;;41.50;21.05;;;;;;;2.41;87.36;99299.91;5051037;28;20439;-67
2020/12/30 09:09:09;;;;;;;47.58;23.85;;;;;;;2.41;87.54;99299.91;5050259;28;20044;-67
2020/12/30 09:11:36;;;;;;;46.03;23.60;;;;;;;2.40;87.42;99300.91;5050003;28;20397;-67
2020/12/30 09:14:18;;;;;;;52.42;24.52;;;;;;;2.44;87.59;99300.47;5051069;28;20103;-67
2020/12/30 09:17:00;;;;;;;52.90;24.33;;;;;;;2.42;87.22;99306.84;5049949;28;20048;-67
2020/12/30 09:19:25;;;;;;;42.72;22.83;;;;;;;2.44;87.19;99305.72;5049584;28;20040;-67
2020/12/30 09:21:51;;;;;;;47.10;24.80;;;;;;;2.42;87.43;99309.47;5050348;28;20103;-67
2020/12/30 09:24:17;;;;;;;46.58;24.88;;;;;;;2.44;87.31;99310.16;5051053;28;20052;-67
2020/12/30 09:26:42;;;;;;;50.85;25.52;;;;;;;2.43;87.34;99314.59;5048141;28;20040;-67
2020/12/30 09:29:19;;;;;;;52.83;25.35;;;;;;;2.40;87.42;99309.63;5050564;28;20103;-66
2020/12/30 09:31:51;;;;;;;;;;;;;;;2.41;87.31;99311.28;5050317;28;20463;-67
2020/12/30 09:34:17;;;;;;;51.95;24.60;;;;;;;2.42;87.06;99310.31;5049529;28;20011;-66
2020/12/30 09:36:56;;;;;;;45.55;23.00;;;;;;;2.42;87.03;99320.03;5050400;28;20048;-66
2020/12/30 09:39:22;;;;;;;39.72;21.15;;;;;;;2.45;87.19;99317.09;5049777;28;20068;-66
2020/12/30 09:41:47;;;;;;;48.47;24.60;;;;;;;2.44;87.23;99320.72;5049421;28;20112;-66
2020/12/30 09:44:12;;;;;;;40.67;23.13;;;;;;;2.43;86.81;99319.03;5049183;28;20041;-66
2020/12/30 09:46:48;;;;;;;41.57;21.37;;;;;;;2.41;86.96;99319.19;5030967;28;20057;-66
2020/12/30 09:49:13;;;;;;;42.33;21.25;;;;;;;2.46;87.00;99319.59;5048267;28;20056;-66
2020/12/30 09:51:39;;;;;;;44.33;22.33;;;;;;;2.43;87.25;99326.94;5049075;28;20037;-66
2020/12/30 09:54:04;;;;;;;40.07;22.90;;;;;;;2.40;87.19;99330.69;5049118;28;20044;-66
2020/12/30 09:56:29;;;;;;;51.57;22.93;;;;;;;2.44;87.21;99331.25;5047634;28;20029;-65
2020/12/30 09:58:55;;;;;;;42.23;22.43;;;;;;;2.44;87.00;99318.06;5050323;28;20032;-66
2020/12/30 10:01:23;;;;;;;44.33;21.13;;;;;;;2.45;87.12;99320.53;5049686;28;20096;-66
2020/12/30 10:03:48;;;;;;;41.63;21.38;;;;;;;2.46;87.27;99329.31;5050401;28;20052;-66
2020/12/30 10:06:14;;;;;;;43.53;23.50;;;;;;;2.46;87.28;99330.13;5050330;28;20045;-65
2020/12/30 10:08:40;;;;;;;44.00;24.30;;;;;;;2.46;86.80;99319.59;5050573;28;20082;-66
2020/12/30 10:11:05;;;;;;;46.25;21.85;;;;;;;2.48;87.27;99335.22;5049501;28;20076;-65
2020/12/30 10:13:30;;;;;;;40.73;20.90;;;;;;;2.50;86.93;99325.38;5050328;28;20037;-66
2020/12/30 10:15:55;;;;;;;44.40;22.77;;;;;;;2.49;87.05;99335.09;5050297;28;20044;-66
2020/12/30 10:18:21;;;;;;;43.00;23.50;;;;;;;2.53;86.71;99336.47;5049465;28;20033;-66
2020/12/30 10:20:46;;;;;;;41.67;23.47;;;;;;;2.50;86.68;99336.75;5049548;28;20362;-66
2020/12/30 10:23:11;;;;;;;43.50;21.07;;;;;;;2.50;86.96;99352.53;5049466;28;20523;-66
2020/12/30 10:25:37;;;;;;;48.37;26.03;;;;;;;2.46;86.71;99335.38;5049381;28;20457;-66
2020/12/30 10:28:02;;;;;;;47.10;22.83;;;;;;;2.47;86.97;99347.56;5049413;28;20497;-66
2020/12/30 10:30:27;;;;;;;40.03;23.47;;;;;;;2.43;87.07;99343.56;5051351;28;20064;-66
2020/12/30 10:32:53;;;;;;;47.40;24.70;;;;;;;2.47;87.08;99352.84;5053289;28;20326;-66
2020/12/30 10:35:19;;;;;;;47.50;22.52;;;;;;;2.44;86.97;99350.50;5054004;28;20072;-66
2020/12/30 10:37:44;;;;;;;43.97;23.50;;;;;;;2.41;87.06;99353.44;5053745;28;20045;-65
2020/12/30 10:40:09;;;;;;;57.87;26.87;;;;;;;2.36;86.97;99339.84;5053886;28;20124;-66
2020/12/30 10:42:35;;;;;;;49.20;24.13;;;;;;;2.38;87.28;99351.06;5052916;28;20445;-66
2020/12/30 10:45:00;;;;;;;50.33;24.63;;;;;;;2.36;87.35;99363.56;5053612;28;20745;-66
2020/12/30 10:47:25;;;;;;;52.37;25.50;;;;;;;2.31;87.39;99340.28;5035907;28;20446;-66
2020/12/30 10:49:51;;;;;;;52.60;25.47;;;;;;;2.36;87.43;99365.38;5052471;28;20639;-66
2020/12/30 10:52:16;;;;;;;48.53;24.33;;;;;;;2.33;87.16;99358.59;5053641;28;20343;-66
2020/12/30 10:54:44;;;;;;;54.50;25.50;;;;;;;2.34;87.25;99357.59;5052604;28;20477;-66
2020/12/30 10:57:09;;;;;;;55.97;26.02;;;;;;;2.37;87.34;99356.50;5052169;28;20041;-66
2020/12/30 10:59:35;;;;;;;55.50;24.87;;;;;;;2.28;87.10;99348.47;5052389;28;20047;-66
2020/12/30 11:02:02;;;;;;;55.10;27.63;;;;;;;2.34;87.15;99357.59;5053091;28;20095;-66
2020/12/30 11:04:28;;;;;;;50.58;25.48;;;;;;;2.33;86.96;99356.78;5052101;28;20132;-66
2020/12/30 11:06:53;;;;;;;49.80;25.30;;;;;;;2.33;87.17;99364.66;5053029;28;20482;-66
2020/12/30 11:09:18;;;;;;;51.53;23.00;;;;;;;2.37;87.17;99359.13;5052207;28;20052;-66
2020/12/30 11:11:45;;;;;;;53.87;27.50;;;;;;;2.37;87.10;99367.03;5052420;28;20056;-66
2020/12/30 11:14:10;;;;;;;47.88;25.85;;;;;;;2.31;86.98;99366.63;5051973;28;20041;-66
2020/12/30 11:16:36;;;;;;;50.60;23.90;;;;;;;2.29;87.05;99360.69;5051813;28;20166;-66
2020/12/30 11:19:01;;;;;;;54.97;26.27;;;;;;;2.27;87.28;99360.00;5052150;28;20512;-67
2020/12/30 11:21:27;;;;;;;49.63;24.03;;;;;;;2.29;87.35;99365.09;5053011;28;20098;-66
2020/12/30 11:23:52;;;;;;;55.05;27.00;;;;;;;2.30;87.41;99372.88;5052049;28;20291;-67
2020/12/30 11:26:18;;;;;;;48.20;25.03;;;;;;;2.33;87.29;99363.84;5051751;28;20386;-67
2020/12/30 11:28:43;;;;;;;48.83;26.37;;;;;;;2.29;87.39;99358.06;5035143;28;20095;-67